Terminal Aerodrome Forecast
Issued by NWS

Home | Current Version | Previous Version | Text Only | Print | Product List | Glossary On
Versions: 1 2 3 4 5 6 7 8 9 10 11 12 13 14 15 16 17 18 19 20 21 22
000
FTUS42 KMLB 250700 AAA
TAFLEE
TAF AMD
KLEE 250703Z 2507/2606 29007KT P6SM BKN015
     FM250800 32008KT P6SM BKN060
     FM251200 33007KT P6SM SCT035 BKN110 BKN250
     FM260100 03005KT P6SM SCT025 BKN040=

USA.gov is the U.S. government's official web portal to all federal, state and local government web resources and services.